createdAt,value
2018-01-16T00:01:51.186Z,4.30
2018-01-16T00:04:18.534Z,4.20
2018-01-16T00:06:44.863Z,4.20
2018-01-16T00:09:11.203Z,4.40
2018-01-16T00:11:37.595Z,4.40
2018-01-16T00:14:03.946Z,4.50
2018-01-16T00:16:30.282Z,4.50
2018-01-16T00:18:56.626Z,4.60
2018-01-16T00:21:22.986Z,4.70
2018-01-16T00:23:49.398Z,4.60
2018-01-16T00:26:15.739Z,4.70
2018-01-16T00:28:42.099Z,4.70
2018-01-16T00:31:09.220Z,4.70
2018-01-16T00:33:35.563Z,4.60
2018-01-16T00:36:01.913Z,4.60
2018-01-16T00:38:28.996Z,4.70
2018-01-16T00:40:55.373Z,4.70
2018-01-16T00:43:21.703Z,4.70
2018-01-16T00:45:48.039Z,4.80
2018-01-16T00:48:14.386Z,4.70
2018-01-16T00:50:41.483Z,4.70
2018-01-16T00:53:07.918Z,4.70
2018-01-16T00:55:34.282Z,4.70
2018-01-16T00:58:01.371Z,4.90
2018-01-16T01:00:27.697Z,4.90
2018-01-16T01:02:54.117Z,5.00
2018-01-16T01:05:21.196Z,4.90
2018-01-16T01:07:47.587Z,4.90
2018-01-16T01:10:14.659Z,5.00
2018-01-16T01:12:42.025Z,5.00
2018-01-16T01:15:08.366Z,5.00
2018-01-16T01:17:34.722Z,5.10
2018-01-16T01:20:01.059Z,5.20
2018-01-16T01:22:27.394Z,5.30
2018-01-16T01:24:53.747Z,5.40
2018-01-16T01:27:20.850Z,5.50
2018-01-16T01:29:48.153Z,5.40
2018-01-16T01:32:16.227Z,5.60
2018-01-16T01:34:43.289Z,5.50
2018-01-16T01:37:09.652Z,5.50
2018-01-16T01:39:36.007Z,5.70
2018-01-16T01:42:02.404Z,5.50
2018-01-16T01:44:28.730Z,5.40
2018-01-16T01:46:55.067Z,5.30
2018-01-16T01:49:21.402Z,5.10
2018-01-16T01:51:47.739Z,5.00
2018-01-16T01:54:14.103Z,5.00
2018-01-16T01:56:41.170Z,4.90
2018-01-16T01:59:08.238Z,4.90
2018-01-16T02:01:34.578Z,4.90
2018-01-16T02:04:00.925Z,4.90
2018-01-16T02:06:27.262Z,4.80
2018-01-16T02:08:53.598Z,4.80
2018-01-16T02:11:19.943Z,4.70
2018-01-16T02:13:46.272Z,4.70
2018-01-16T02:16:12.668Z,4.70
2018-01-16T02:18:39.000Z,4.70
2018-01-16T02:21:05.342Z,4.70
2018-01-16T02:23:31.680Z,4.70
2018-01-16T02:25:58.039Z,4.80
2018-01-16T02:28:24.394Z,4.70
2018-01-16T02:30:50.759Z,4.70
2018-01-16T02:33:17.099Z,4.80
2018-01-16T02:35:43.459Z,4.70
2018-01-16T02:38:09.823Z,4.70
2018-01-16T02:40:36.167Z,4.70
2018-01-16T02:43:03.687Z,4.70
2018-01-16T02:45:30.071Z,4.80
2018-01-16T02:47:56.432Z,4.70
2018-01-16T02:50:22.821Z,4.70
2018-01-16T02:52:51.580Z,4.80
2018-01-16T02:55:18.689Z,4.70
2018-01-16T02:57:46.035Z,4.70
2018-01-16T03:00:12.394Z,4.80
2018-01-16T03:02:38.724Z,4.70
2018-01-16T03:05:05.079Z,4.60
2018-01-16T03:07:32.506Z,4.70
2018-01-16T03:09:58.830Z,4.70
2018-01-16T03:12:25.162Z,4.70
2018-01-16T03:14:51.502Z,4.70
2018-01-16T03:17:17.859Z,4.70
2018-01-16T03:19:44.958Z,4.70
2018-01-16T03:22:11.300Z,4.70
2018-01-16T03:24:37.646Z,4.60
2018-01-16T03:27:04.003Z,4.60
2018-01-16T03:29:31.115Z,4.50
2018-01-16T03:31:57.447Z,4.50
2018-01-16T03:34:23.774Z,4.60
2018-01-16T03:36:50.158Z,4.70
2018-01-16T03:39:16.498Z,4.70
2018-01-16T03:41:42.850Z,4.70
2018-01-16T03:44:09.183Z,4.70
2018-01-16T03:46:35.514Z,4.60
2018-01-16T03:49:01.906Z,4.70
2018-01-16T03:51:28.991Z,4.60
2018-01-16T03:53:55.351Z,4.60
2018-01-16T03:56:21.671Z,4.60
2018-01-16T03:58:48.020Z,4.70
2018-01-16T04:01:14.365Z,4.60
2018-01-16T04:03:41.446Z,4.60
2018-01-16T04:06:07.815Z,4.60
2018-01-16T04:08:34.155Z,4.70
2018-01-16T04:11:00.486Z,4.80
2018-01-16T04:13:26.846Z,4.90
2018-01-16T04:15:53.167Z,4.90
2018-01-16T04:18:20.283Z,5.00
2018-01-16T04:20:47.018Z,5.00
2018-01-16T04:23:13.356Z,5.10
2018-01-16T04:25:39.686Z,5.10
2018-01-16T04:28:06.030Z,5.10
2018-01-16T04:30:32.366Z,5.00
2018-01-16T04:32:59.430Z,5.10
2018-01-16T04:35:26.495Z,5.20
2018-01-16T04:37:53.595Z,5.20
2018-01-16T04:40:19.971Z,5.20
2018-01-16T04:42:47.103Z,5.40
2018-01-16T04:45:14.230Z,5.30
2018-01-16T04:47:40.554Z,5.30
2018-01-16T04:50:06.911Z,5.40
2018-01-16T04:52:34.278Z,5.30
2018-01-16T04:55:01.378Z,5.40
2018-01-16T04:57:27.737Z,5.40
2018-01-16T04:59:54.099Z,5.30
2018-01-16T05:02:21.171Z,5.30
2018-01-16T05:04:47.590Z,5.30
2018-01-16T05:07:13.964Z,5.30
2018-01-16T05:09:40.326Z,5.30
2018-01-16T05:12:06.666Z,5.30
2018-01-16T05:14:33.760Z,5.30
2018-01-16T05:17:00.099Z,5.30
2018-01-16T05:19:26.438Z,5.40
2018-01-16T05:21:52.780Z,5.50
2018-01-16T05:24:19.134Z,5.50
2018-01-16T05:26:46.206Z,5.40
2018-01-16T05:29:12.571Z,5.40
2018-01-16T05:31:38.926Z,5.50
2018-01-16T05:34:05.340Z,5.50
2018-01-16T05:36:31.648Z,5.60
2018-01-16T05:38:57.970Z,5.60
2018-01-16T05:41:24.307Z,5.60
2018-01-16T05:43:50.654Z,5.50
2018-01-16T05:46:17.036Z,5.60
2018-01-16T05:48:44.140Z,5.60
2018-01-16T05:51:10.482Z,5.50
2018-01-16T05:53:36.812Z,5.50
2018-01-16T05:56:03.147Z,5.40
2018-01-16T05:58:29.494Z,5.50
2018-01-16T06:00:57.096Z,5.60
2018-01-16T06:03:23.441Z,5.50
2018-01-16T06:05:51.672Z,5.40
2018-01-16T06:08:21.336Z,5.50
2018-01-16T06:10:54.040Z,5.60
2018-01-16T06:13:21.674Z,5.60
2018-01-16T06:15:48.110Z,5.60
2018-01-16T06:18:15.238Z,5.70
2018-01-16T06:20:42.314Z,5.70
2018-01-16T06:23:08.696Z,5.70
2018-01-16T06:25:35.046Z,5.90
2018-01-16T06:28:02.131Z,5.80
2018-01-16T06:30:28.476Z,5.80
2018-01-16T06:32:54.811Z,5.70
2018-01-16T06:35:21.156Z,5.80
2018-01-16T06:37:47.492Z,5.70
2018-01-16T06:40:13.825Z,5.70
2018-01-16T06:42:41.155Z,5.70
2018-01-16T06:45:08.509Z,5.70
2018-01-16T06:47:34.856Z,5.70
2018-01-16T06:50:01.175Z,5.70
2018-01-16T06:52:27.501Z,5.70
2018-01-16T06:54:53.827Z,5.70
2018-01-16T06:57:20.154Z,5.70
2018-01-16T06:59:46.510Z,5.80
2018-01-16T07:02:12.850Z,5.90
2018-01-16T07:04:39.205Z,5.90
2018-01-16T07:07:05.531Z,5.90
2018-01-16T07:09:31.869Z,5.90
2018-01-16T07:11:58.249Z,6.00
2018-01-16T07:14:24.603Z,6.00
2018-01-16T07:16:50.971Z,6.10
2018-01-16T07:19:18.095Z,6.10
2018-01-16T07:21:44.438Z,6.10
2018-01-16T07:24:10.855Z,6.10
2018-01-16T07:26:37.183Z,6.10
2018-01-16T07:29:03.522Z,6.00
2018-01-16T07:31:29.851Z,6.00
2018-01-16T07:33:56.194Z,6.00
2018-01-16T07:36:22.539Z,6.00
2018-01-16T07:38:48.901Z,6.00
2018-01-16T07:41:15.230Z,6.00
2018-01-16T07:43:41.576Z,6.10
2018-01-16T07:46:08.217Z,6.10
2018-01-16T07:48:34.577Z,6.10
2018-01-16T07:51:00.906Z,6.10
2018-01-16T07:53:27.263Z,6.20
2018-01-16T07:55:53.602Z,6.40
2018-01-16T07:58:20.674Z,6.70
2018-01-16T08:00:47.062Z,6.60
2018-01-16T08:03:13.422Z,6.80
2018-01-16T08:05:40.495Z,7.10
2018-01-16T08:08:06.854Z,7.10
2018-01-16T08:10:33.226Z,7.10
2018-01-16T08:13:00.322Z,7.30
2018-01-16T08:15:26.678Z,7.30
2018-01-16T08:17:53.014Z,7.30
2018-01-16T08:20:19.345Z,7.40
2018-01-16T08:22:45.682Z,7.40
2018-01-16T08:25:12.806Z,7.40
2018-01-16T08:27:39.167Z,7.40
2018-01-16T08:30:05.503Z,7.30
2018-01-16T08:32:32.578Z,7.40
2018-01-16T08:34:58.910Z,7.30
2018-01-16T08:37:26.302Z,7.40
2018-01-16T08:39:52.642Z,7.40
2018-01-16T08:42:18.970Z,7.40
2018-01-16T08:44:45.303Z,7.40
2018-01-16T08:47:12.292Z,7.50
2018-01-16T08:49:39.410Z,7.70
2018-01-16T08:52:05.756Z,7.70
2018-01-16T08:54:33.859Z,7.70
2018-01-16T08:57:00.226Z,7.70
2018-01-16T08:59:26.587Z,7.80
2018-01-16T09:01:53.675Z,7.80
2018-01-16T09:04:20.013Z,7.70
2018-01-16T09:06:46.366Z,7.80
2018-01-16T09:09:12.746Z,7.70
2018-01-16T09:11:39.875Z,7.40
2018-01-16T09:14:06.218Z,7.40
2018-01-16T09:16:34.350Z,7.20
2018-01-16T09:19:00.694Z,7.20
2018-01-16T09:21:27.045Z,7.10
2018-01-16T09:23:53.366Z,7.10
2018-01-16T09:26:19.737Z,7.20
2018-01-16T09:28:47.095Z,7.20
2018-01-16T09:31:13.429Z,7.30
2018-01-16T09:33:39.876Z,7.40
2018-01-16T09:36:06.214Z,7.40
2018-01-16T09:38:32.584Z,7.50
2018-01-16T09:40:58.939Z,7.60
2018-01-16T09:43:26.007Z,7.80
2018-01-16T09:45:52.370Z,7.80
2018-01-16T09:48:18.722Z,8.00
2018-01-16T09:50:45.079Z,8.10
2018-01-16T09:53:12.170Z,8.10
2018-01-16T09:55:38.498Z,8.00
2018-01-16T09:58:04.827Z,8.00
2018-01-16T10:00:31.186Z,7.90
2018-01-16T10:02:57.518Z,7.90
2018-01-16T10:05:23.857Z,8.00
2018-01-16T10:07:50.226Z,7.90
2018-01-16T10:10:16.586Z,8.10
2018-01-16T10:12:42.927Z,8.20
2018-01-16T10:15:09.654Z,8.20
2018-01-16T10:17:35.986Z,8.20
2018-01-16T10:20:02.381Z,8.20
2018-01-16T10:22:29.463Z,8.10
2018-01-16T10:24:55.819Z,8.10
2018-01-16T10:27:23.154Z,8.10
2018-01-16T10:29:49.500Z,8.10
2018-01-16T10:32:15.842Z,7.90
2018-01-16T10:34:42.178Z,7.70
2018-01-16T10:37:09.254Z,7.40
2018-01-16T10:39:36.363Z,7.30
2018-01-16T10:42:02.719Z,7.30
2018-01-16T10:44:29.058Z,7.20
2018-01-16T10:46:56.134Z,7.00
2018-01-16T10:49:22.474Z,7.00
2018-01-16T10:51:49.498Z,7.00
2018-01-16T10:54:15.865Z,6.90
2018-01-16T10:56:42.242Z,6.90
2018-01-16T10:59:09.342Z,6.70
2018-01-16T11:01:35.690Z,6.70
2018-01-16T11:04:02.036Z,6.60
2018-01-16T11:06:29.856Z,6.60
2018-01-16T11:08:57.237Z,6.50
2018-01-16T11:11:23.569Z,6.60
2018-01-16T11:13:49.924Z,6.40
2018-01-16T11:16:16.302Z,6.40
2018-01-16T11:18:42.662Z,6.50
2018-01-16T11:21:09.004Z,6.50
2018-01-16T11:23:35.351Z,6.50
2018-01-16T11:26:01.690Z,6.50
2018-01-16T11:28:28.783Z,6.60
2018-01-16T11:30:55.135Z,6.60
2018-01-16T11:33:21.481Z,6.60
2018-01-16T11:35:47.811Z,6.50
2018-01-16T11:38:14.154Z,6.50
2018-01-16T11:40:40.519Z,6.50
2018-01-16T11:43:07.663Z,6.70
2018-01-16T11:45:34.726Z,6.80
2018-01-16T11:48:01.075Z,6.80
2018-01-16T11:50:27.415Z,6.80
2018-01-16T11:52:53.770Z,6.80
2018-01-16T11:55:20.127Z,6.80
2018-01-16T11:57:47.241Z,6.80
2018-01-16T12:00:13.631Z,6.80
2018-01-16T12:02:40.001Z,6.70
2018-01-16T12:05:06.409Z,6.60
2018-01-16T12:07:32.782Z,6.50
2018-01-16T12:09:59.134Z,6.40
2018-01-16T12:12:26.223Z,6.30
2018-01-16T12:14:52.562Z,6.30
2018-01-16T12:17:18.903Z,6.40
2018-01-16T12:19:45.246Z,6.50
2018-01-16T12:22:11.576Z,6.50
2018-01-16T12:24:37.906Z,6.60
2018-01-16T12:27:04.255Z,6.70
2018-01-16T12:29:30.598Z,6.60
2018-01-16T12:31:57.712Z,6.60
2018-01-16T12:34:24.785Z,6.60
2018-01-16T12:36:51.172Z,6.60
2018-01-16T12:39:18.377Z,6.70
2018-01-16T12:41:45.482Z,6.70
2018-01-16T12:44:11.815Z,6.70
2018-01-16T12:46:38.147Z,6.60
2018-01-16T12:49:04.582Z,6.70
2018-01-16T12:51:30.941Z,6.60
2018-01-16T12:53:57.551Z,6.60
2018-01-16T12:56:24.104Z,6.60
2018-01-16T12:58:50.458Z,6.60
2018-01-16T13:01:16.848Z,6.60
2018-01-16T13:03:43.490Z,6.50
2018-01-16T13:06:09.913Z,6.60
2018-01-16T13:08:37.295Z,6.60
2018-01-16T13:11:03.632Z,6.60
2018-01-16T13:13:29.978Z,6.50
2018-01-16T13:15:56.314Z,6.50
2018-01-16T13:18:22.687Z,6.50
2018-01-16T13:20:49.078Z,6.50
2018-01-16T13:23:15.399Z,6.40
2018-01-16T13:25:41.733Z,6.40
2018-01-16T13:28:08.225Z,6.50
2018-01-16T13:30:34.591Z,6.50
2018-01-16T13:33:00.914Z,6.50
2018-01-16T13:35:27.250Z,6.30
2018-01-16T13:37:53.598Z,6.30
2018-01-16T13:40:19.955Z,6.10
2018-01-16T13:42:46.333Z,6.10
2018-01-16T13:45:12.674Z,6.00
2018-01-16T13:47:39.039Z,5.90
2018-01-16T13:50:06.119Z,5.60
2018-01-16T13:52:32.457Z,5.60
2018-01-16T13:54:58.812Z,5.60
2018-01-16T13:57:25.165Z,5.50
2018-01-16T13:59:51.502Z,5.30
2018-01-16T14:02:17.845Z,5.30
2018-01-16T14:04:44.943Z,5.20
2018-01-16T14:07:11.327Z,5.20
2018-01-16T14:09:38.408Z,5.20
2018-01-16T14:12:04.763Z,5.10
2018-01-16T14:14:31.118Z,5.10
2018-01-16T14:16:57.435Z,4.90
2018-01-16T14:19:24.809Z,4.80
2018-01-16T14:21:51.154Z,4.70
2018-01-16T14:24:18.247Z,4.70
2018-01-16T14:26:44.586Z,4.60
2018-01-16T14:29:10.936Z,4.60
2018-01-16T14:31:38.579Z,4.50
2018-01-16T14:34:04.906Z,4.50
2018-01-16T14:36:31.242Z,4.40
2018-01-16T14:38:57.606Z,4.40
2018-01-16T14:41:23.950Z,4.30
2018-01-16T14:43:51.069Z,4.30
2018-01-16T14:46:17.401Z,4.30
2018-01-16T14:48:43.760Z,4.20
2018-01-16T14:51:10.834Z,4.10
2018-01-16T14:53:37.198Z,4.10
2018-01-16T14:56:03.559Z,4.20
2018-01-16T14:58:29.884Z,4.10
2018-01-16T15:00:56.215Z,4.10
2018-01-16T15:03:22.554Z,4.00
2018-01-16T15:05:49.687Z,3.90
2018-01-16T15:08:16.080Z,3.90
2018-01-16T15:10:42.423Z,3.80
2018-01-16T15:13:08.746Z,3.80
2018-01-16T15:15:35.071Z,3.70
2018-01-16T15:18:01.399Z,3.70
2018-01-16T15:20:27.731Z,3.70
2018-01-16T15:22:54.110Z,3.70
2018-01-16T15:25:20.443Z,3.70
2018-01-16T15:27:46.774Z,3.80
2018-01-16T15:30:13.118Z,3.70
2018-01-16T15:32:39.462Z,3.70
2018-01-16T15:35:06.562Z,3.60
2018-01-16T15:37:32.894Z,3.60
2018-01-16T15:39:59.267Z,3.60
2018-01-16T15:42:26.370Z,3.60
2018-01-16T15:44:52.742Z,3.60
2018-01-16T15:47:19.090Z,3.60
2018-01-16T15:49:46.198Z,3.40
2018-01-16T15:52:12.530Z,3.30
2018-01-16T15:54:38.879Z,3.50
2018-01-16T15:57:05.216Z,3.50
2018-01-16T15:59:31.567Z,3.50
2018-01-16T16:01:57.923Z,3.40
2018-01-16T16:04:24.257Z,3.40
2018-01-16T16:06:50.609Z,3.40
2018-01-16T16:09:16.924Z,3.40
2018-01-16T16:11:43.263Z,3.40
2018-01-16T16:14:09.706Z,3.50
2018-01-16T16:16:36.067Z,3.40
2018-01-16T16:19:02.398Z,3.50
2018-01-16T16:21:28.739Z,3.60
2018-01-16T16:23:55.871Z,3.50
2018-01-16T16:26:22.230Z,3.50
2018-01-16T16:28:49.293Z,3.60
2018-01-16T16:31:15.650Z,3.50
2018-01-16T16:33:42.011Z,3.50
2018-01-16T16:36:08.734Z,3.60
2018-01-16T16:38:35.062Z,3.70
2018-01-16T16:41:01.435Z,3.80
2018-01-16T16:43:29.534Z,4.00
2018-01-16T16:45:55.895Z,4.00
2018-01-16T16:48:22.227Z,4.00
2018-01-16T16:50:48.570Z,4.10
2018-01-16T16:53:14.902Z,3.90
2018-01-16T16:55:41.291Z,3.90
2018-01-16T16:58:08.674Z,4.00
2018-01-16T17:00:35.015Z,4.00
2018-01-16T17:03:01.351Z,4.00
2018-01-16T17:05:28.034Z,3.70
2018-01-16T17:07:54.363Z,3.50
2018-01-16T17:10:21.437Z,3.40
2018-01-16T17:12:47.972Z,3.40
2018-01-16T17:15:14.306Z,3.30
2018-01-16T17:17:40.659Z,3.30
2018-01-16T17:20:07.011Z,3.10
2018-01-16T17:22:33.347Z,3.10
2018-01-16T17:24:59.669Z,3.10
2018-01-16T17:27:26.001Z,3.00
2018-01-16T17:29:53.358Z,2.90
2018-01-16T17:32:19.704Z,2.80
2018-01-16T17:34:46.782Z,2.80
2018-01-16T17:37:13.890Z,2.80
2018-01-16T17:39:40.234Z,2.80
2018-01-16T17:42:07.346Z,2.80
2018-01-16T17:44:33.679Z,2.70
2018-01-16T17:47:00.025Z,2.70
2018-01-16T17:49:26.353Z,2.70
2018-01-16T17:51:52.716Z,2.60
2018-01-16T17:54:19.823Z,2.60
2018-01-16T17:56:46.166Z,2.60
2018-01-16T17:59:12.512Z,2.60
2018-01-16T18:01:39.630Z,2.60
2018-01-16T18:04:05.963Z,2.60
2018-01-16T18:06:32.311Z,2.60
2018-01-16T18:08:58.639Z,2.70
2018-01-16T18:11:24.969Z,2.70
2018-01-16T18:13:51.294Z,2.70
2018-01-16T18:16:17.628Z,2.70
2018-01-16T18:18:44.022Z,2.70
2018-01-16T18:21:10.352Z,2.70
2018-01-16T18:23:36.675Z,2.80
2018-01-16T18:26:03.026Z,2.80
2018-01-16T18:28:29.372Z,2.70
2018-01-16T18:30:55.734Z,2.60
2018-01-16T18:33:22.834Z,2.50
2018-01-16T18:35:49.166Z,2.50
2018-01-16T18:38:15.498Z,2.50
2018-01-16T18:40:41.866Z,2.50
2018-01-16T18:43:08.418Z,2.50
2018-01-16T18:45:35.562Z,2.50
2018-01-16T18:48:02.682Z,2.60
2018-01-16T18:50:29.042Z,2.60
2018-01-16T18:52:56.178Z,2.70
2018-01-16T18:55:22.496Z,2.70
2018-01-16T18:57:48.827Z,2.70
2018-01-16T19:00:15.206Z,2.70
2018-01-16T19:02:41.551Z,2.70
2018-01-16T19:05:08.918Z,2.70
2018-01-16T19:07:35.254Z,2.80
2018-01-16T19:10:01.608Z,2.70
2018-01-16T19:12:27.959Z,2.70
2018-01-16T19:14:54.330Z,2.70
2018-01-16T19:17:20.652Z,2.70
2018-01-16T19:19:47.031Z,2.70
2018-01-16T19:22:13.385Z,2.80
2018-01-16T19:24:39.715Z,2.80
2018-01-16T19:27:06.062Z,2.80
2018-01-16T19:29:33.138Z,2.80
2018-01-16T19:31:59.482Z,2.80
2018-01-16T19:34:25.831Z,2.80
2018-01-16T19:36:52.199Z,2.80
2018-01-16T19:39:19.275Z,2.80
2018-01-16T19:41:45.603Z,2.80
2018-01-16T19:44:11.959Z,2.80
2018-01-16T19:46:38.318Z,2.80
2018-01-16T19:49:04.679Z,2.80
2018-01-16T19:51:31.738Z,2.80
2018-01-16T19:53:58.086Z,2.80
2018-01-16T19:56:24.418Z,2.80
2018-01-16T19:58:50.794Z,2.80
2018-01-16T20:01:17.133Z,2.80
2018-01-16T20:03:44.610Z,2.90
2018-01-16T20:06:11.872Z,2.90
2018-01-16T20:08:38.201Z,2.90
2018-01-16T20:11:04.564Z,3.00
2018-01-16T20:13:30.914Z,3.00
2018-01-16T20:15:58.956Z,3.00
2018-01-16T20:18:25.309Z,3.00
2018-01-16T20:20:54.570Z,3.00
2018-01-16T20:23:20.918Z,3.00
2018-01-16T20:25:47.269Z,3.00
2018-01-16T20:28:17.369Z,3.00
2018-01-16T20:30:44.191Z,3.10
2018-01-16T20:33:14.072Z,3.10
2018-01-16T20:35:40.414Z,3.10
2018-01-16T20:38:06.738Z,3.20
2018-01-16T20:40:33.079Z,3.20
2018-01-16T20:43:00.155Z,3.40
2018-01-16T20:45:26.502Z,3.40
2018-01-16T20:47:53.506Z,3.40
2018-01-16T20:50:20.609Z,3.40
2018-01-16T20:52:46.941Z,3.40
2018-01-16T20:55:14.513Z,3.40
2018-01-16T20:57:41.471Z,3.40
2018-01-16T21:00:07.819Z,3.40
2018-01-16T21:02:34.887Z,3.40
2018-01-16T21:05:01.964Z,3.40
2018-01-16T21:07:28.303Z,3.40
2018-01-16T21:09:54.643Z,3.40
2018-01-16T21:12:21.004Z,3.40
2018-01-16T21:14:48.086Z,3.30
2018-01-16T21:17:14.434Z,3.30
2018-01-16T21:19:40.772Z,3.30
2018-01-16T21:22:07.122Z,3.30
2018-01-16T21:24:33.518Z,3.20
2018-01-16T21:26:59.862Z,3.20
2018-01-16T21:29:26.179Z,3.10
2018-01-16T21:31:52.506Z,3.00
2018-01-16T21:34:19.616Z,2.90
2018-01-16T21:36:45.943Z,2.90
2018-01-16T21:39:12.510Z,2.80
2018-01-16T21:41:39.580Z,2.60
2018-01-16T21:44:05.958Z,2.60
2018-01-16T21:46:32.294Z,2.50
2018-01-16T21:48:59.406Z,2.40
2018-01-16T21:51:25.746Z,2.30
2018-01-16T21:53:52.098Z,2.20
2018-01-16T21:56:18.468Z,2.10
2018-01-16T21:58:45.238Z,2.10
2018-01-16T22:01:11.587Z,2.10
2018-01-16T22:03:37.934Z,2.10
2018-01-16T22:06:04.282Z,2.00
2018-01-16T22:08:31.390Z,2.00
2018-01-16T22:10:57.730Z,2.00
2018-01-16T22:13:24.079Z,2.10
2018-01-16T22:15:50.410Z,2.10
2018-01-16T22:18:16.741Z,2.10
2018-01-16T22:20:43.082Z,2.20
2018-01-16T22:23:10.184Z,2.20
2018-01-16T22:25:36.547Z,2.20
2018-01-16T22:28:02.898Z,2.30
2018-01-16T22:30:30.016Z,2.20
2018-01-16T22:32:56.374Z,2.20
2018-01-16T22:35:23.475Z,2.30
2018-01-16T22:37:49.818Z,2.30
2018-01-16T22:40:16.245Z,2.30
2018-01-16T22:42:42.566Z,2.30
2018-01-16T22:45:09.107Z,2.30
2018-01-16T22:47:36.501Z,2.20
2018-01-16T22:50:02.832Z,2.30
2018-01-16T22:52:29.166Z,2.30
2018-01-16T22:54:55.578Z,2.30
2018-01-16T22:57:21.906Z,2.40
2018-01-16T22:59:48.262Z,2.40
2018-01-16T23:02:14.603Z,2.50
2018-01-16T23:04:41.714Z,2.40
2018-01-16T23:07:08.191Z,2.40
2018-01-16T23:09:35.292Z,2.50
2018-01-16T23:12:01.622Z,2.40
2018-01-16T23:14:27.975Z,2.50
2018-01-16T23:16:54.298Z,2.40
2018-01-16T23:19:20.635Z,2.40
2018-01-16T23:21:46.979Z,2.30
2018-01-16T23:24:13.306Z,2.30
2018-01-16T23:26:39.645Z,2.30
2018-01-16T23:29:06.027Z,2.30
2018-01-16T23:31:32.358Z,2.40
2018-01-16T23:33:58.698Z,2.50
2018-01-16T23:36:25.042Z,2.40
2018-01-16T23:38:51.399Z,2.50
2018-01-16T23:41:17.739Z,2.50
2018-01-16T23:43:44.826Z,2.50
2018-01-16T23:46:12.365Z,2.40
2018-01-16T23:48:39.454Z,2.60
2018-01-16T23:51:05.794Z,2.60
2018-01-16T23:53:32.110Z,2.50
2018-01-16T23:55:58.505Z,2.40
2018-01-16T23:58:24.855Z,2.40
